Time;durP1;ratioP1;P1;durP2;ratioP2;P2;SDS_P1;SDS_P2;PMS_P1;PMS_P2;Temp;Humidity;BMP_temperature;BMP_pressure;BME280_temperature;BME280_humidity;BME280_pressure;Samples;Min_cycle;Max_cycle;Signal;HPM_P1;HPM_P2
2021/11/20 00:01:17;;;;;;;13.98;10.40;;;;;;;7.85;69.98;94938.73;823139;71;32754;-79
2021/11/20 00:16:12;;;;;;;12.98;10.08;;;;;;;7.81;70.38;94943.19;827496;71;30124;-77
2021/11/20 00:31:12;;;;;;;12.65;10.28;;;;;;;7.81;70.81;94938.48;827414;71;30778;-78
2021/11/20 00:46:12;;;;;;;12.70;10.40;;;;;;;7.85;71.54;94933.01;833820;71;31967;-79
2021/11/20 01:01:20;;;;;;;13.03;10.28;;;;;;;7.86;72.03;94928.03;833324;71;32702;-81
2021/11/20 01:16:11;;;;;;;10.75;9.65;;;;;;;7.86;72.72;94915.50;833523;71;29490;-77
2021/11/20 01:31:12;;;;;;;12.35;10.00;;;;;;;7.90;73.01;94916.02;833064;71;30236;-79
2021/11/20 01:46:17;;;;;;;14.65;11.00;;;;;;;7.94;73.52;94922.83;827773;71;31347;-78
2021/11/20 02:01:30;;;;;;;13.65;10.63;;;;;;;7.96;73.81;94918.90;834791;71;30309;-78
2021/11/20 02:16:17;;;;;;;15.00;11.35;;;;;;;8.04;74.04;94895.39;827379;71;32854;-79
2021/11/20 02:31:10;;;;;;;13.58;10.20;;;;;;;8.13;73.88;94879.97;832880;71;30720;-80
2021/11/20 02:46:11;;;;;;;10.40;8.35;;;;;;;8.20;73.67;94859.06;840700;70;30369;-79
2021/11/20 03:16:09;;;;;;;11.33;9.48;;;;;;;8.17;74.47;94836.08;833801;71;29701;-77
2021/11/20 03:31:08;;;;;;;9.95;8.88;;;;;;;8.19;74.97;94847.05;827463;71;29704;-79
2021/11/20 03:46:13;;;;;;;12.55;8.98;;;;;;;8.27;75.07;94857.47;827559;71;33381;-78
2021/11/20 04:01:12;;;;;;;10.00;9.00;;;;;;;8.32;75.06;94864.02;827514;71;30378;-77
2021/11/20 04:16:10;;;;;;;9.30;8.05;;;;;;;8.35;74.93;94860.08;827923;71;29692;-78
2021/11/20 04:31:17;;;;;;;12.45;8.95;;;;;;;8.41;74.87;94873.44;828045;71;33550;-80
2021/11/20 04:46:17;;;;;;;10.80;9.15;;;;;;;8.45;74.64;94876.31;827153;71;32737;-79
2021/11/20 05:01:09;;;;;;;8.98;8.00;;;;;;;8.47;74.42;94834.46;827791;71;30221;-77
2021/11/20 05:16:10;;;;;;;10.10;8.40;;;;;;;8.50;74.38;94828.72;827862;71;30388;-78
2021/11/20 05:31:09;;;;;;;7.80;7.10;;;;;;;8.48;74.34;94825.59;833245;71;29705;-81
2021/11/20 05:46:18;;;;;;;12.03;7.85;;;;;;;8.46;74.49;94834.22;826853;71;32778;-78
2021/11/20 06:01:15;;;;;;;10.18;9.05;;;;;;;8.69;74.30;94873.92;833924;71;30777;-81
2021/11/20 06:16:15;;;;;;;11.28;8.63;;;;;;;8.86;73.45;94861.82;827661;71;32751;-82
2021/11/20 15:16:10;;;;;;;12.30;10.40;;;;;;;10.39;65.82;94722.39;822176;71;29622;-84
2021/11/20 15:31:12;;;;;;;11.65;9.65;;;;;;;10.27;65.40;94725.38;822638;71;29818;-78
2021/11/20 15:46:10;;;;;;;10.08;9.08;;;;;;;10.06;65.70;94746.30;821586;71;30720;-78
2021/11/20 16:01:10;;;;;;;14.13;11.30;;;;;;;9.85;65.86;94733.40;821780;71;30020;-79
2021/11/20 16:16:11;;;;;;;13.05;10.93;;;;;;;9.69;65.95;94735.91;828057;71;31295;-78
2021/11/20 16:31:10;;;;;;;11.20;9.73;;;;;;;9.50;66.06;94730.03;827330;71;30364;-77
2021/11/20 16:46:14;;;;;;;10.65;9.63;;;;;;;9.32;66.27;94751.66;821956;70;32813;-80
2021/11/20 17:01:07;;;;;;;10.13;8.78;;;;;;;;;;822787;71;29740;-80
2021/11/20 17:16:08;;;;;;;9.48;8.30;;;;;;;;;;827574;71;30342;-80
2021/11/20 17:31:15;;;;;;;11.65;9.73;;;;;;;8.91;66.74;123554.15;826830;71;32754;-78
2021/11/20 17:46:19;;;;;;;11.88;9.25;;;;;;;8.79;66.85;94727.37;826174;71;32855;-79
2021/11/20 18:01:15;;;;;;;10.18;9.05;;;;;;;8.67;67.12;94721.69;820034;71;29878;-78
2021/11/20 18:16:47;;;;;;;9.30;8.40;;;;;;;;;;821013;71;26402;-80
2021/11/20 18:31:09;;;;;;;8.88;7.15;;;;;;;8.54;67.77;94715.98;828807;70;29400;-82
2021/11/20 18:46:16;;;;;;;9.78;8.28;;;;;;;8.50;68.11;94721.50;827474;71;32327;-81
2021/11/20 19:01:52;;;;;;;10.30;8.60;;;;;;;8.42;68.78;94721.53;794427;74;31894;-81
2021/11/20 19:31:51;;;;;;;9.28;8.35;;;;;;;8.50;69.70;160893.84;857945;68;31625;-80
2021/11/20 19:46:59;;;;;;;9.60;8.68;;;;;;;8.50;70.38;94731.96;834270;71;31868;-80
2021/11/20 22:31:55;;;;;;;;;;;;;;;;;;;;;
